sensor_id;sensor_type;location;lat;lon;timestamp;P1;durP1;ratioP1;P2;durP2;ratioP2
72493;SDS011;60520;49.182;-0.348;2022-11-27T00:01:40;11.95;;;4.10;;
72493;SDS011;60520;49.182;-0.348;2022-11-27T00:04:08;10.95;;;4.18;;
72493;SDS011;60520;49.182;-0.348;2022-11-27T00:06:37;14.27;;;4.68;;
72493;SDS011;60520;49.182;-0.348;2022-11-27T00:09:05;12.80;;;4.25;;
72493;SDS011;60520;49.182;-0.348;2022-11-27T00:11:33;10.38;;;4.07;;
72493;SDS011;60520;49.182;-0.348;2022-11-27T00:14:01;11.20;;;3.53;;
72493;SDS011;60520;49.182;-0.348;2022-11-27T00:16:28;10.05;;;3.78;;
72493;SDS011;60520;49.182;-0.348;2022-11-27T00:18:55;11.05;;;4.38;;
72493;SDS011;60520;49.182;-0.348;2022-11-27T00:21:25;9.45;;;4.10;;
72493;SDS011;60520;49.182;-0.348;2022-11-27T00:23:52;10.23;;;4.00;;
72493;SDS011;60520;49.182;-0.348;2022-11-27T00:26:20;10.27;;;3.70;;
72493;SDS011;60520;49.182;-0.348;2022-11-27T00:28:47;9.00;;;4.13;;
72493;SDS011;60520;49.182;-0.348;2022-11-27T00:31:16;13.48;;;4.40;;
72493;SDS011;60520;49.182;-0.348;2022-11-27T00:33:44;12.52;;;4.30;;
72493;SDS011;60520;49.182;-0.348;2022-11-27T00:36:11;11.38;;;4.28;;
72493;SDS011;60520;49.182;-0.348;2022-11-27T00:38:39;9.85;;;4.10;;
72493;SDS011;60520;49.182;-0.348;2022-11-27T00:41:06;9.95;;;3.97;;
72493;SDS011;60520;49.182;-0.348;2022-11-27T00:43:34;10.52;;;3.63;;
72493;SDS011;60520;49.182;-0.348;2022-11-27T00:46:01;8.35;;;3.70;;
72493;SDS011;60520;49.182;-0.348;2022-11-27T00:48:29;9.18;;;3.97;;
72493;SDS011;60520;49.182;-0.348;2022-11-27T00:50:57;9.15;;;3.70;;
72493;SDS011;60520;49.182;-0.348;2022-11-27T00:53:25;10.02;;;3.92;;
72493;SDS011;60520;49.182;-0.348;2022-11-27T00:55:52;8.38;;;4.03;;
72493;SDS011;60520;49.182;-0.348;2022-11-27T00:58:19;9.75;;;3.65;;
72493;SDS011;60520;49.182;-0.348;2022-11-27T01:00:52;10.15;;;3.70;;
72493;SDS011;60520;49.182;-0.348;2022-11-27T01:03:19;9.70;;;3.80;;
72493;SDS011;60520;49.182;-0.348;2022-11-27T01:05:48;8.73;;;3.75;;
72493;SDS011;60520;49.182;-0.348;2022-11-27T01:08:15;9.00;;;3.60;;
72493;SDS011;60520;49.182;-0.348;2022-11-27T01:10:46;9.43;;;3.70;;
72493;SDS011;60520;49.182;-0.348;2022-11-27T01:13:14;9.27;;;3.83;;
72493;SDS011;60520;49.182;-0.348;2022-11-27T01:15:41;7.72;;;3.35;;
72493;SDS011;60520;49.182;-0.348;2022-11-27T01:18:09;8.38;;;3.33;;
72493;SDS011;60520;49.182;-0.348;2022-11-27T01:20:36;7.80;;;3.55;;
72493;SDS011;60520;49.182;-0.348;2022-11-27T01:23:05;9.90;;;3.58;;
72493;SDS011;60520;49.182;-0.348;2022-11-27T01:25:32;7.97;;;3.47;;
72493;SDS011;60520;49.182;-0.348;2022-11-27T01:28:00;8.23;;;3.53;;
72493;SDS011;60520;49.182;-0.348;2022-11-27T01:30:27;8.73;;;3.58;;
72493;SDS011;60520;49.182;-0.348;2022-11-27T01:32:54;7.93;;;3.55;;
72493;SDS011;60520;49.182;-0.348;2022-11-27T01:35:21;9.00;;;3.47;;
72493;SDS011;60520;49.182;-0.348;2022-11-27T01:37:48;8.30;;;3.53;;
72493;SDS011;60520;49.182;-0.348;2022-11-27T01:40:17;9.35;;;3.50;;
72493;SDS011;60520;49.182;-0.348;2022-11-27T01:42:44;8.60;;;3.30;;
72493;SDS011;60520;49.182;-0.348;2022-11-27T01:45:11;8.57;;;3.17;;
72493;SDS011;60520;49.182;-0.348;2022-11-27T01:47:42;9.43;;;3.67;;
72493;SDS011;60520;49.182;-0.348;2022-11-27T01:50:12;8.55;;;3.40;;
72493;SDS011;60520;49.182;-0.348;2022-11-27T01:52:42;8.90;;;3.45;;
72493;SDS011;60520;49.182;-0.348;2022-11-27T01:55:11;7.15;;;2.92;;
72493;SDS011;60520;49.182;-0.348;2022-11-27T01:57:44;10.02;;;3.40;;
72493;SDS011;60520;49.182;-0.348;2022-11-27T02:00:13;7.53;;;3.20;;
72493;SDS011;60520;49.182;-0.348;2022-11-27T02:02:41;8.20;;;3.05;;
72493;SDS011;60520;49.182;-0.348;2022-11-27T02:05:09;7.60;;;3.10;;
72493;SDS011;60520;49.182;-0.348;2022-11-27T02:07:36;6.50;;;3.17;;
72493;SDS011;60520;49.182;-0.348;2022-11-27T02:10:04;7.82;;;3.42;;
72493;SDS011;60520;49.182;-0.348;2022-11-27T02:12:32;8.32;;;3.10;;
72493;SDS011;60520;49.182;-0.348;2022-11-27T02:15:05;8.48;;;3.20;;
72493;SDS011;60520;49.182;-0.348;2022-11-27T02:17:35;8.48;;;3.40;;
72493;SDS011;60520;49.182;-0.348;2022-11-27T02:20:11;7.38;;;3.05;;
72493;SDS011;60520;49.182;-0.348;2022-11-27T02:22:42;6.18;;;3.17;;
72493;SDS011;60520;49.182;-0.348;2022-11-27T02:25:17;9.68;;;3.35;;
72493;SDS011;60520;49.182;-0.348;2022-11-27T02:28:09;6.72;;;2.90;;
72493;SDS011;60520;49.182;-0.348;2022-11-27T02:30:40;7.20;;;3.03;;
72493;SDS011;60520;49.182;-0.348;2022-11-27T02:33:10;8.57;;;3.20;;
72493;SDS011;60520;49.182;-0.348;2022-11-27T02:35:38;6.68;;;3.00;;
72493;SDS011;60520;49.182;-0.348;2022-11-27T02:38:08;7.10;;;3.20;;
72493;SDS011;60520;49.182;-0.348;2022-11-27T02:40:37;8.18;;;3.38;;
72493;SDS011;60520;49.182;-0.348;2022-11-27T02:43:06;7.35;;;3.30;;
72493;SDS011;60520;49.182;-0.348;2022-11-27T02:45:35;6.32;;;3.10;;
72493;SDS011;60520;49.182;-0.348;2022-11-27T02:48:06;6.45;;;2.63;;
72493;SDS011;60520;49.182;-0.348;2022-11-27T02:50:34;7.82;;;3.00;;
72493;SDS011;60520;49.182;-0.348;2022-11-27T02:53:03;7.13;;;2.70;;
72493;SDS011;60520;49.182;-0.348;2022-11-27T02:55:32;6.25;;;2.47;;
72493;SDS011;60520;49.182;-0.348;2022-11-27T02:58:01;6.13;;;3.03;;
72493;SDS011;60520;49.182;-0.348;2022-11-27T03:00:28;6.43;;;2.90;;
72493;SDS011;60520;49.182;-0.348;2022-11-27T03:02:56;8.43;;;3.08;;
72493;SDS011;60520;49.182;-0.348;2022-11-27T03:05:28;8.20;;;3.05;;
72493;SDS011;60520;49.182;-0.348;2022-11-27T03:07:58;6.75;;;2.92;;
72493;SDS011;60520;49.182;-0.348;2022-11-27T03:10:28;7.82;;;2.65;;
72493;SDS011;60520;49.182;-0.348;2022-11-27T03:12:56;8.45;;;3.05;;
72493;SDS011;60520;49.182;-0.348;2022-11-27T03:15:23;7.97;;;2.80;;
72493;SDS011;60520;49.182;-0.348;2022-11-27T03:17:52;7.13;;;2.75;;
72493;SDS011;60520;49.182;-0.348;2022-11-27T03:20:22;6.90;;;2.60;;
72493;SDS011;60520;49.182;-0.348;2022-11-27T03:22:53;7.47;;;2.95;;
72493;SDS011;60520;49.182;-0.348;2022-11-27T03:25:20;7.95;;;2.80;;
72493;SDS011;60520;49.182;-0.348;2022-11-27T03:27:49;6.50;;;2.95;;
72493;SDS011;60520;49.182;-0.348;2022-11-27T03:30:18;5.07;;;2.47;;
72493;SDS011;60520;49.182;-0.348;2022-11-27T03:32:45;7.00;;;2.75;;
72493;SDS011;60520;49.182;-0.348;2022-11-27T03:35:13;6.05;;;2.53;;
72493;SDS011;60520;49.182;-0.348;2022-11-27T03:37:42;6.50;;;2.67;;
72493;SDS011;60520;49.182;-0.348;2022-11-27T03:40:11;5.03;;;2.38;;
72493;SDS011;60520;49.182;-0.348;2022-11-27T03:42:42;5.95;;;2.60;;
72493;SDS011;60520;49.182;-0.348;2022-11-27T03:45:12;6.85;;;2.92;;
72493;SDS011;60520;49.182;-0.348;2022-11-27T03:47:44;6.28;;;2.88;;
72493;SDS011;60520;49.182;-0.348;2022-11-27T03:50:18;6.13;;;2.60;;
72493;SDS011;60520;49.182;-0.348;2022-11-27T03:52:49;7.47;;;3.30;;
72493;SDS011;60520;49.182;-0.348;2022-11-27T03:55:20;6.00;;;2.60;;
72493;SDS011;60520;49.182;-0.348;2022-11-27T03:57:50;5.53;;;2.50;;
72493;SDS011;60520;49.182;-0.348;2022-11-27T04:00:20;6.15;;;2.55;;
72493;SDS011;60520;49.182;-0.348;2022-11-27T04:02:49;4.82;;;2.35;;
72493;SDS011;60520;49.182;-0.348;2022-11-27T04:05:17;5.80;;;2.33;;
72493;SDS011;60520;49.182;-0.348;2022-11-27T04:07:44;5.55;;;2.47;;
72493;SDS011;60520;49.182;-0.348;2022-11-27T04:10:12;8.43;;;2.60;;
72493;SDS011;60520;49.182;-0.348;2022-11-27T04:12:40;4.25;;;2.17;;
72493;SDS011;60520;49.182;-0.348;2022-11-27T04:15:08;5.28;;;2.35;;
72493;SDS011;60520;49.182;-0.348;2022-11-27T04:17:35;6.07;;;2.78;;
72493;SDS011;60520;49.182;-0.348;2022-11-27T04:20:03;5.47;;;2.42;;
72493;SDS011;60520;49.182;-0.348;2022-11-27T04:22:30;6.93;;;2.88;;
72493;SDS011;60520;49.182;-0.348;2022-11-27T04:24:57;4.63;;;2.20;;
72493;SDS011;60520;49.182;-0.348;2022-11-27T04:27:24;6.47;;;2.20;;
72493;SDS011;60520;49.182;-0.348;2022-11-27T04:29:52;4.10;;;2.13;;
72493;SDS011;60520;49.182;-0.348;2022-11-27T04:32:20;4.82;;;2.20;;
72493;SDS011;60520;49.182;-0.348;2022-11-27T04:34:47;6.78;;;2.58;;
72493;SDS011;60520;49.182;-0.348;2022-11-27T04:37:14;5.85;;;2.47;;
72493;SDS011;60520;49.182;-0.348;2022-11-27T04:39:41;6.15;;;2.63;;
72493;SDS011;60520;49.182;-0.348;2022-11-27T04:42:08;5.25;;;2.53;;
72493;SDS011;60520;49.182;-0.348;2022-11-27T04:44:35;5.40;;;2.20;;
72493;SDS011;60520;49.182;-0.348;2022-11-27T04:47:04;4.18;;;1.95;;
72493;SDS011;60520;49.182;-0.348;2022-11-27T04:49:31;4.32;;;2.35;;
72493;SDS011;60520;49.182;-0.348;2022-11-27T04:51:58;4.80;;;2.10;;
72493;SDS011;60520;49.182;-0.348;2022-11-27T04:54:25;5.10;;;2.17;;
72493;SDS011;60520;49.182;-0.348;2022-11-27T04:56:52;6.43;;;2.40;;
72493;SDS011;60520;49.182;-0.348;2022-11-27T04:59:19;4.88;;;2.20;;
72493;SDS011;60520;49.182;-0.348;2022-11-27T05:01:47;5.28;;;2.20;;
72493;SDS011;60520;49.182;-0.348;2022-11-27T05:04:15;5.88;;;2.50;;
72493;SDS011;60520;49.182;-0.348;2022-11-27T05:06:42;4.70;;;2.17;;
72493;SDS011;60520;49.182;-0.348;2022-11-27T05:09:10;3.90;;;1.90;;
72493;SDS011;60520;49.182;-0.348;2022-11-27T05:11:37;4.78;;;1.90;;
72493;SDS011;60520;49.182;-0.348;2022-11-27T05:14:04;4.68;;;2.22;;
72493;SDS011;60520;49.182;-0.348;2022-11-27T05:16:41;8.25;;;2.80;;
72493;SDS011;60520;49.182;-0.348;2022-11-27T05:19:08;5.13;;;2.25;;
72493;SDS011;60520;49.182;-0.348;2022-11-27T05:21:36;6.07;;;2.40;;
72493;SDS011;60520;49.182;-0.348;2022-11-27T05:24:04;4.85;;;2.05;;
72493;SDS011;60520;49.182;-0.348;2022-11-27T05:26:34;4.90;;;2.22;;
72493;SDS011;60520;49.182;-0.348;2022-11-27T05:29:01;5.43;;;2.15;;
72493;SDS011;60520;49.182;-0.348;2022-11-27T05:31:28;5.70;;;2.00;;
72493;SDS011;60520;49.182;-0.348;2022-11-27T05:33:55;4.50;;;2.05;;
72493;SDS011;60520;49.182;-0.348;2022-11-27T05:36:22;5.38;;;2.08;;
72493;SDS011;60520;49.182;-0.348;2022-11-27T05:38:51;4.85;;;2.00;;
72493;SDS011;60520;49.182;-0.348;2022-11-27T05:41:18;3.60;;;1.95;;
72493;SDS011;60520;49.182;-0.348;2022-11-27T05:43:46;3.78;;;1.88;;
72493;SDS011;60520;49.182;-0.348;2022-11-27T05:46:13;4.88;;;1.95;;
72493;SDS011;60520;49.182;-0.348;2022-11-27T05:48:41;4.07;;;1.65;;
72493;SDS011;60520;49.182;-0.348;2022-11-27T05:51:08;3.92;;;2.00;;
72493;SDS011;60520;49.182;-0.348;2022-11-27T05:53:35;5.13;;;2.20;;
72493;SDS011;60520;49.182;-0.348;2022-11-27T05:56:04;4.40;;;1.90;;
72493;SDS011;60520;49.182;-0.348;2022-11-27T05:58:32;3.35;;;1.80;;
72493;SDS011;60520;49.182;-0.348;2022-11-27T06:00:59;4.05;;;1.90;;
72493;SDS011;60520;49.182;-0.348;2022-11-27T06:03:26;4.60;;;2.20;;
72493;SDS011;60520;49.182;-0.348;2022-11-27T06:05:54;3.78;;;1.63;;
72493;SDS011;60520;49.182;-0.348;2022-11-27T06:08:21;4.65;;;2.08;;
72493;SDS011;60520;49.182;-0.348;2022-11-27T06:10:48;4.40;;;2.08;;
72493;SDS011;60520;49.182;-0.348;2022-11-27T06:13:17;3.70;;;2.03;;
72493;SDS011;60520;49.182;-0.348;2022-11-27T06:15:44;3.67;;;2.00;;
72493;SDS011;60520;49.182;-0.348;2022-11-27T06:18:11;3.72;;;1.70;;
72493;SDS011;60520;49.182;-0.348;2022-11-27T06:20:38;5.25;;;1.98;;
72493;SDS011;60520;49.182;-0.348;2022-11-27T06:23:05;4.05;;;1.77;;
72493;SDS011;60520;49.182;-0.348;2022-11-27T06:25:32;3.22;;;1.95;;
72493;SDS011;60520;49.182;-0.348;2022-11-27T06:27:59;3.53;;;1.90;;
72493;SDS011;60520;49.182;-0.348;2022-11-27T06:30:28;5.20;;;1.70;;
72493;SDS011;60520;49.182;-0.348;2022-11-27T06:32:55;4.03;;;1.88;;
72493;SDS011;60520;49.182;-0.348;2022-11-27T06:35:22;4.15;;;1.80;;
72493;SDS011;60520;49.182;-0.348;2022-11-27T06:37:49;4.15;;;1.95;;
72493;SDS011;60520;49.182;-0.348;2022-11-27T06:40:16;4.43;;;1.90;;
72493;SDS011;60520;49.182;-0.348;2022-11-27T06:42:43;3.88;;;1.75;;
72493;SDS011;60520;49.182;-0.348;2022-11-27T06:45:10;4.50;;;1.88;;
72493;SDS011;60520;49.182;-0.348;2022-11-27T06:47:39;4.30;;;2.03;;
72493;SDS011;60520;49.182;-0.348;2022-11-27T06:50:06;3.63;;;1.83;;
72493;SDS011;60520;49.182;-0.348;2022-11-27T06:52:34;3.28;;;1.67;;
72493;SDS011;60520;49.182;-0.348;2022-11-27T06:55:01;4.10;;;1.73;;
72493;SDS011;60520;49.182;-0.348;2022-11-27T06:57:28;3.85;;;1.80;;
72493;SDS011;60520;49.182;-0.348;2022-11-27T06:59:55;3.60;;;1.80;;
72493;SDS011;60520;49.182;-0.348;2022-11-27T07:02:22;4.18;;;1.73;;
72493;SDS011;60520;49.182;-0.348;2022-11-27T07:04:51;3.92;;;1.80;;
72493;SDS011;60520;49.182;-0.348;2022-11-27T07:07:18;4.15;;;1.70;;
72493;SDS011;60520;49.182;-0.348;2022-11-27T07:09:45;3.67;;;1.83;;
72493;SDS011;60520;49.182;-0.348;2022-11-27T07:12:12;3.15;;;1.60;;
72493;SDS011;60520;49.182;-0.348;2022-11-27T07:14:39;2.13;;;1.40;;
72493;SDS011;60520;49.182;-0.348;2022-11-27T07:17:07;3.92;;;1.83;;
72493;SDS011;60520;49.182;-0.348;2022-11-27T07:19:34;3.15;;;1.50;;
72493;SDS011;60520;49.182;-0.348;2022-11-27T07:22:03;3.88;;;1.80;;
72493;SDS011;60520;49.182;-0.348;2022-11-27T07:24:30;3.88;;;1.90;;
72493;SDS011;60520;49.182;-0.348;2022-11-27T07:26:57;3.15;;;1.63;;
72493;SDS011;60520;49.182;-0.348;2022-11-27T07:29:24;2.75;;;1.50;;
72493;SDS011;60520;49.182;-0.348;2022-11-27T07:31:51;3.70;;;1.80;;
72493;SDS011;60520;49.182;-0.348;2022-11-27T07:34:18;3.33;;;1.63;;
72493;SDS011;60520;49.182;-0.348;2022-11-27T07:36:45;2.92;;;1.58;;
72493;SDS011;60520;49.182;-0.348;2022-11-27T07:39:14;2.88;;;1.45;;
72493;SDS011;60520;49.182;-0.348;2022-11-27T07:41:41;3.22;;;1.50;;
72493;SDS011;60520;49.182;-0.348;2022-11-27T07:44:08;3.63;;;1.80;;
72493;SDS011;60520;49.182;-0.348;2022-11-27T07:46:35;3.45;;;1.60;;
72493;SDS011;60520;49.182;-0.348;2022-11-27T07:49:03;2.90;;;1.60;;
72493;SDS011;60520;49.182;-0.348;2022-11-27T07:51:30;2.55;;;1.48;;
72493;SDS011;60520;49.182;-0.348;2022-11-27T07:53:57;3.97;;;1.77;;
72493;SDS011;60520;49.182;-0.348;2022-11-27T07:56:26;3.40;;;1.95;;
72493;SDS011;60520;49.182;-0.348;2022-11-27T07:58:54;2.42;;;1.35;;
72493;SDS011;60520;49.182;-0.348;2022-11-27T08:01:22;3.58;;;1.65;;
72493;SDS011;60520;49.182;-0.348;2022-11-27T08:03:49;3.70;;;1.52;;
72493;SDS011;60520;49.182;-0.348;2022-11-27T08:06:17;3.08;;;1.52;;
72493;SDS011;60520;49.182;-0.348;2022-11-27T08:08:45;2.50;;;1.42;;
72493;SDS011;60520;49.182;-0.348;2022-11-27T08:11:16;3.15;;;1.60;;
72493;SDS011;60520;49.182;-0.348;2022-11-27T08:13:44;3.08;;;1.65;;
72493;SDS011;60520;49.182;-0.348;2022-11-27T08:16:12;4.55;;;1.48;;
72493;SDS011;60520;49.182;-0.348;2022-11-27T08:18:39;3.67;;;1.60;;
72493;SDS011;60520;49.182;-0.348;2022-11-27T08:21:06;2.40;;;1.40;;
72493;SDS011;60520;49.182;-0.348;2022-11-27T08:23:34;2.88;;;1.52;;
72493;SDS011;60520;49.182;-0.348;2022-11-27T08:26:03;3.22;;;1.58;;
72493;SDS011;60520;49.182;-0.348;2022-11-27T08:28:30;4.57;;;1.77;;
72493;SDS011;60520;49.182;-0.348;2022-11-27T08:30:59;3.00;;;1.52;;
72493;SDS011;60520;49.182;-0.348;2022-11-27T08:33:27;2.67;;;1.40;;
72493;SDS011;60520;49.182;-0.348;2022-11-27T08:35:54;3.00;;;1.58;;
72493;SDS011;60520;49.182;-0.348;2022-11-27T08:38:21;2.65;;;1.30;;
72493;SDS011;60520;49.182;-0.348;2022-11-27T08:40:55;2.28;;;1.27;;
72493;SDS011;60520;49.182;-0.348;2022-11-27T08:43:22;3.95;;;1.50;;
72493;SDS011;60520;49.182;-0.348;2022-11-27T08:45:50;2.50;;;1.52;;
72493;SDS011;60520;49.182;-0.348;2022-11-27T08:48:18;3.08;;;1.55;;
72493;SDS011;60520;49.182;-0.348;2022-11-27T08:50:46;2.38;;;1.48;;
72493;SDS011;60520;49.182;-0.348;2022-11-27T08:53:13;3.30;;;1.40;;
72493;SDS011;60520;49.182;-0.348;2022-11-27T08:55:41;2.35;;;1.38;;
72493;SDS011;60520;49.182;-0.348;2022-11-27T08:58:08;2.60;;;1.35;;
72493;SDS011;60520;49.182;-0.348;2022-11-27T09:00:36;2.38;;;1.38;;
72493;SDS011;60520;49.182;-0.348;2022-11-27T09:03:03;2.80;;;1.40;;
72493;SDS011;60520;49.182;-0.348;2022-11-27T09:05:32;2.28;;;1.30;;
72493;SDS011;60520;49.182;-0.348;2022-11-27T09:07:59;2.25;;;1.38;;
72493;SDS011;60520;49.182;-0.348;2022-11-27T09:10:29;2.47;;;1.20;;
72493;SDS011;60520;49.182;-0.348;2022-11-27T09:12:56;2.20;;;1.17;;
72493;SDS011;60520;49.182;-0.348;2022-11-27T09:15:24;3.28;;;1.60;;
72493;SDS011;60520;49.182;-0.348;2022-11-27T09:17:52;2.40;;;1.33;;
72493;SDS011;60520;49.182;-0.348;2022-11-27T09:20:19;2.78;;;1.48;;
72493;SDS011;60520;49.182;-0.348;2022-11-27T09:22:47;2.45;;;1.17;;
72493;SDS011;60520;49.182;-0.348;2022-11-27T09:25:15;1.70;;;1.17;;
72493;SDS011;60520;49.182;-0.348;2022-11-27T09:27:42;3.13;;;1.48;;
72493;SDS011;60520;49.182;-0.348;2022-11-27T09:30:09;2.95;;;1.45;;
72493;SDS011;60520;49.182;-0.348;2022-11-27T09:32:37;2.78;;;1.25;;
72493;SDS011;60520;49.182;-0.348;2022-11-27T09:35:04;2.65;;;1.30;;
72493;SDS011;60520;49.182;-0.348;2022-11-27T09:37:31;2.30;;;1.40;;
72493;SDS011;60520;49.182;-0.348;2022-11-27T09:40:00;2.45;;;1.20;;
72493;SDS011;60520;49.182;-0.348;2022-11-27T09:42:35;1.42;;;1.10;;
72493;SDS011;60520;49.182;-0.348;2022-11-27T09:45:04;2.17;;;1.25;;
72493;SDS011;60520;49.182;-0.348;2022-11-27T09:47:34;2.55;;;1.30;;
72493;SDS011;60520;49.182;-0.348;2022-11-27T09:50:05;2.55;;;1.27;;
72493;SDS011;60520;49.182;-0.348;2022-11-27T09:52:38;3.05;;;1.50;;
72493;SDS011;60520;49.182;-0.348;2022-11-27T09:55:10;2.28;;;1.20;;
72493;SDS011;60520;49.182;-0.348;2022-11-27T09:57:39;1.77;;;1.20;;
72493;SDS011;60520;49.182;-0.348;2022-11-27T10:00:10;2.83;;;1.30;;
72493;SDS011;60520;49.182;-0.348;2022-11-27T10:02:39;1.98;;;1.20;;
72493;SDS011;60520;49.182;-0.348;2022-11-27T10:05:09;2.20;;;1.30;;
72493;SDS011;60520;49.182;-0.348;2022-11-27T10:07:39;2.33;;;1.00;;
72493;SDS011;60520;49.182;-0.348;2022-11-27T10:10:14;2.88;;;1.20;;
72493;SDS011;60520;49.182;-0.348;2022-11-27T10:12:45;3.00;;;1.25;;
72493;SDS011;60520;49.182;-0.348;2022-11-27T10:15:16;2.25;;;0.93;;
72493;SDS011;60520;49.182;-0.348;2022-11-27T10:17:45;2.22;;;1.23;;
72493;SDS011;60520;49.182;-0.348;2022-11-27T10:20:17;1.50;;;1.15;;
72493;SDS011;60520;49.182;-0.348;2022-11-27T10:22:49;2.50;;;1.27;;
72493;SDS011;60520;49.182;-0.348;2022-11-27T10:25:24;2.15;;;1.10;;
72493;SDS011;60520;49.182;-0.348;2022-11-27T10:27:56;2.25;;;1.38;;
72493;SDS011;60520;49.182;-0.348;2022-11-27T10:30:25;3.05;;;1.30;;
72493;SDS011;60520;49.182;-0.348;2022-11-27T10:32:53;2.40;;;1.10;;
72493;SDS011;60520;49.182;-0.348;2022-11-27T10:35:22;2.28;;;1.20;;
72493;SDS011;60520;49.182;-0.348;2022-11-27T10:37:50;1.98;;;1.05;;
72493;SDS011;60520;49.182;-0.348;2022-11-27T10:40:21;2.55;;;1.23;;
72493;SDS011;60520;49.182;-0.348;2022-11-27T10:42:50;2.28;;;1.40;;
72493;SDS011;60520;49.182;-0.348;2022-11-27T10:45:20;1.70;;;1.08;;
72493;SDS011;60520;49.182;-0.348;2022-11-27T10:47:48;2.00;;;1.20;;
72493;SDS011;60520;49.182;-0.348;2022-11-27T10:50:16;2.60;;;1.20;;
72493;SDS011;60520;49.182;-0.348;2022-11-27T10:52:44;2.05;;;1.10;;
72493;SDS011;60520;49.182;-0.348;2022-11-27T10:55:14;2.13;;;1.10;;
72493;SDS011;60520;49.182;-0.348;2022-11-27T10:57:52;2.08;;;1.20;;
72493;SDS011;60520;49.182;-0.348;2022-11-27T11:00:23;1.90;;;1.00;;
72493;SDS011;60520;49.182;-0.348;2022-11-27T11:02:58;1.58;;;0.90;;
72493;SDS011;60520;49.182;-0.348;2022-11-27T11:05:26;2.35;;;1.30;;
72493;SDS011;60520;49.182;-0.348;2022-11-27T11:07:54;2.08;;;1.10;;
72493;SDS011;60520;49.182;-0.348;2022-11-27T11:10:23;2.50;;;1.20;;
72493;SDS011;60520;49.182;-0.348;2022-11-27T11:13:03;2.22;;;1.08;;
72493;SDS011;60520;49.182;-0.348;2022-11-27T11:15:30;2.35;;;1.13;;
72493;SDS011;60520;49.182;-0.348;2022-11-27T11:17:57;1.40;;;1.10;;
72493;SDS011;60520;49.182;-0.348;2022-11-27T11:20:24;2.47;;;1.30;;
72493;SDS011;60520;49.182;-0.348;2022-11-27T11:22:52;1.77;;;1.08;;
72493;SDS011;60520;49.182;-0.348;2022-11-27T11:25:19;2.53;;;1.35;;
72493;SDS011;60520;49.182;-0.348;2022-11-27T11:27:49;1.65;;;1.00;;
72493;SDS011;60520;49.182;-0.348;2022-11-27T11:30:22;2.17;;;1.30;;
72493;SDS011;60520;49.182;-0.348;2022-11-27T11:32:50;1.83;;;1.10;;
72493;SDS011;60520;49.182;-0.348;2022-11-27T11:35:24;1.50;;;1.00;;
72493;SDS011;60520;49.182;-0.348;2022-11-27T11:37:52;1.88;;;1.00;;
72493;SDS011;60520;49.182;-0.348;2022-11-27T11:40:20;1.38;;;0.90;;
72493;SDS011;60520;49.182;-0.348;2022-11-27T11:42:50;3.25;;;1.20;;
72493;SDS011;60520;49.182;-0.348;2022-11-27T11:45:19;1.52;;;0.90;;
72493;SDS011;60520;49.182;-0.348;2022-11-27T11:47:48;1.80;;;1.00;;
72493;SDS011;60520;49.182;-0.348;2022-11-27T11:50:16;1.60;;;1.05;;
72493;SDS011;60520;49.182;-0.348;2022-11-27T11:52:49;1.60;;;1.00;;
72493;SDS011;60520;49.182;-0.348;2022-11-27T11:55:21;1.80;;;1.02;;
72493;SDS011;60520;49.182;-0.348;2022-11-27T11:57:56;1.63;;;1.00;;
72493;SDS011;60520;49.182;-0.348;2022-11-27T12:00:28;2.30;;;1.33;;
72493;SDS011;60520;49.182;-0.348;2022-11-27T12:03:06;1.35;;;0.73;;
72493;SDS011;60520;49.182;-0.348;2022-11-27T12:05:37;1.70;;;0.90;;
72493;SDS011;60520;49.182;-0.348;2022-11-27T12:08:12;2.13;;;0.90;;
72493;SDS011;60520;49.182;-0.348;2022-11-27T12:10:47;2.58;;;1.13;;
72493;SDS011;60520;49.182;-0.348;2022-11-27T12:13:22;1.80;;;1.00;;
72493;SDS011;60520;49.182;-0.348;2022-11-27T12:15:54;1.80;;;1.10;;
72493;SDS011;60520;49.182;-0.348;2022-11-27T12:18:28;2.53;;;1.10;;
72493;SDS011;60520;49.182;-0.348;2022-11-27T12:21:00;1.35;;;1.05;;
72493;SDS011;60520;49.182;-0.348;2022-11-27T12:23:37;1.30;;;1.00;;
72493;SDS011;60520;49.182;-0.348;2022-11-27T12:26:11;1.77;;;1.02;;
72493;SDS011;60520;49.182;-0.348;2022-11-27T12:28:54;1.90;;;1.10;;
72493;SDS011;60520;49.182;-0.348;2022-11-27T12:31:26;2.00;;;0.90;;
72493;SDS011;60520;49.182;-0.348;2022-11-27T12:34:01;1.23;;;0.80;;
72493;SDS011;60520;49.182;-0.348;2022-11-27T12:36:44;2.13;;;1.30;;
72493;SDS011;60520;49.182;-0.348;2022-11-27T12:39:16;2.08;;;1.10;;
72493;SDS011;60520;49.182;-0.348;2022-11-27T12:41:51;1.77;;;1.02;;
72493;SDS011;60520;49.182;-0.348;2022-11-27T12:44:22;1.75;;;1.10;;
72493;SDS011;60520;49.182;-0.348;2022-11-27T12:46:53;1.85;;;1.00;;
72493;SDS011;60520;49.182;-0.348;2022-11-27T12:49:25;1.63;;;0.93;;
72493;SDS011;60520;49.182;-0.348;2022-11-27T12:51:54;2.00;;;1.00;;
72493;SDS011;60520;49.182;-0.348;2022-11-27T12:54:24;2.05;;;1.00;;
72493;SDS011;60520;49.182;-0.348;2022-11-27T12:56:54;1.60;;;1.10;;
72493;SDS011;60520;49.182;-0.348;2022-11-27T12:59:23;1.85;;;1.10;;
72493;SDS011;60520;49.182;-0.348;2022-11-27T13:01:53;1.67;;;1.00;;
72493;SDS011;60520;49.182;-0.348;2022-11-27T13:04:23;1.40;;;0.98;;
72493;SDS011;60520;49.182;-0.348;2022-11-27T13:06:54;1.25;;;0.75;;
72493;SDS011;60520;49.182;-0.348;2022-11-27T13:09:24;1.45;;;0.90;;
72493;SDS011;60520;49.182;-0.348;2022-11-27T13:11:52;1.70;;;1.13;;
72493;SDS011;60520;49.182;-0.348;2022-11-27T13:14:20;1.45;;;0.90;;
72493;SDS011;60520;49.182;-0.348;2022-11-27T13:16:49;2.13;;;1.05;;
72493;SDS011;60520;49.182;-0.348;2022-11-27T13:19:21;1.67;;;1.10;;
72493;SDS011;60520;49.182;-0.348;2022-11-27T13:21:48;1.60;;;0.93;;
72493;SDS011;60520;49.182;-0.348;2022-11-27T13:24:17;1.38;;;0.98;;
72493;SDS011;60520;49.182;-0.348;2022-11-27T13:26:46;1.58;;;0.98;;
72493;SDS011;60520;49.182;-0.348;2022-11-27T13:29:16;1.35;;;0.93;;
72493;SDS011;60520;49.182;-0.348;2022-11-27T13:31:45;1.42;;;1.00;;
72493;SDS011;60520;49.182;-0.348;2022-11-27T13:34:15;1.85;;;1.05;;
72493;SDS011;60520;49.182;-0.348;2022-11-27T13:36:44;1.40;;;0.90;;
72493;SDS011;60520;49.182;-0.348;2022-11-27T13:39:21;2.08;;;1.10;;
72493;SDS011;60520;49.182;-0.348;2022-11-27T13:41:57;1.63;;;1.00;;
72493;SDS011;60520;49.182;-0.348;2022-11-27T13:44:25;1.45;;;0.80;;
72493;SDS011;60520;49.182;-0.348;2022-11-27T13:46:53;1.98;;;1.10;;
72493;SDS011;60520;49.182;-0.348;2022-11-27T13:49:23;1.35;;;0.93;;
72493;SDS011;60520;49.182;-0.348;2022-11-27T13:51:51;2.15;;;1.10;;
72493;SDS011;60520;49.182;-0.348;2022-11-27T13:54:30;1.67;;;0.90;;
72493;SDS011;60520;49.182;-0.348;2022-11-27T13:57:07;1.40;;;1.00;;
72493;SDS011;60520;49.182;-0.348;2022-11-27T13:59:34;1.08;;;0.75;;
72493;SDS011;60520;49.182;-0.348;2022-11-27T14:02:04;1.20;;;0.75;;
72493;SDS011;60520;49.182;-0.348;2022-11-27T14:04:31;2.00;;;0.88;;
72493;SDS011;60520;49.182;-0.348;2022-11-27T14:06:59;1.95;;;0.95;;
72493;SDS011;60520;49.182;-0.348;2022-11-27T14:09:32;2.28;;;1.00;;
72493;SDS011;60520;49.182;-0.348;2022-11-27T14:12:00;1.73;;;0.90;;
72493;SDS011;60520;49.182;-0.348;2022-11-27T14:14:28;0.90;;;0.70;;
72493;SDS011;60520;49.182;-0.348;2022-11-27T14:16:55;1.30;;;0.88;;
72493;SDS011;60520;49.182;-0.348;2022-11-27T14:19:25;1.23;;;0.90;;
72493;SDS011;60520;49.182;-0.348;2022-11-27T14:21:53;1.10;;;0.90;;
72493;SDS011;60520;49.182;-0.348;2022-11-27T14:24:22;1.70;;;0.90;;
72493;SDS011;60520;49.182;-0.348;2022-11-27T14:26:50;2.05;;;0.90;;
72493;SDS011;60520;49.182;-0.348;2022-11-27T14:29:18;1.60;;;0.90;;
72493;SDS011;60520;49.182;-0.348;2022-11-27T14:31:53;1.58;;;0.90;;
72493;SDS011;60520;49.182;-0.348;2022-11-27T14:34:24;1.48;;;0.90;;
72493;SDS011;60520;49.182;-0.348;2022-11-27T14:36:52;1.45;;;0.82;;
72493;SDS011;60520;49.182;-0.348;2022-11-27T14:39:23;1.20;;;0.93;;
72493;SDS011;60520;49.182;-0.348;2022-11-27T14:42:01;1.05;;;0.80;;
72493;SDS011;60520;49.182;-0.348;2022-11-27T14:44:29;1.15;;;0.73;;